Startpagina
METAR-TAF:

METAR-TAF

Vliegvelden :

Wittmund, Duitsland

breedte: 53-33N, lengte: 007-40E, hoogte: 8 m

Actueel weer

Dit bericht is 51 minuten geleden gemaakt, om 15:20 UTC
Wind 11 kt uit het oosten
Temperatuur 22°C
Vochtigheid 20%
Druk 1023 hPa
Zicht 10 km of meer

METAR: ETNT 201520Z 10011KT 9999 22/M02 Q1023 BLU+

Tijdstip: 18:11 (16:11 UTC)

Verwachting

Dit bericht is 3 uur en het 11 minuten geleden gemaakt, om 13:00 UTC
Verwachting geldig van 20 om 14 UTC tot 20 om 23 UTC
Wind 11 kt uit het oosten
Zicht 10 km of meer
Weinig wolken op 25000 ft

TAF: ETNT 201300Z 2014/2023 10011KT 9999 NSW FEW250 BY ETGL

Waarnemingen en weersverwachtingen van meer dan 4000 vliegvelden (METAR en TAF).

De beschikbare stations zijn de gele en rode punten op de kaart.

Ga met uw muis naar het station om de naam te zien.

Klik dan om waarnemingen en weersverwachtingen te zien.

kaart wijzigen: klik op de groene knoppen met een zwart kruis om in te zoomen, op de groene knop met een streepje om uit te zoomen of op de groene pijlen voor aangrenzende kaarten.


METAR-TAF: